sensor_id;sensor_type;location;lat;lon;timestamp;P1;durP1;ratioP1;P2;durP2;ratioP2
83511;SDS011;73446;0.000;0.000;2024-01-30T00:00:40;2.08;;;1.55;;
83511;SDS011;73446;0.000;0.000;2024-01-30T00:03:24;1.67;;;1.33;;
83511;SDS011;73446;0.000;0.000;2024-01-30T00:06:08;2.40;;;2.00;;
83511;SDS011;73446;0.000;0.000;2024-01-30T00:08:52;2.15;;;1.88;;
83511;SDS011;73446;0.000;0.000;2024-01-30T00:11:37;2.00;;;1.50;;
83511;SDS011;73446;0.000;0.000;2024-01-30T00:14:21;1.83;;;1.45;;
83511;SDS011;73446;0.000;0.000;2024-01-30T00:17:06;1.67;;;1.50;;
83511;SDS011;73446;0.000;0.000;2024-01-30T00:19:49;1.42;;;1.08;;
83511;SDS011;73446;0.000;0.000;2024-01-30T00:22:33;2.35;;;2.15;;
83511;SDS011;73446;0.000;0.000;2024-01-30T00:25:17;1.58;;;1.15;;
83511;SDS011;73446;0.000;0.000;2024-01-30T00:28:02;1.15;;;1.05;;
83511;SDS011;73446;0.000;0.000;2024-01-30T00:30:46;1.48;;;1.20;;
83511;SDS011;73446;0.000;0.000;2024-01-30T00:33:30;1.88;;;1.45;;
83511;SDS011;73446;0.000;0.000;2024-01-30T00:36:14;1.63;;;1.40;;
83511;SDS011;73446;0.000;0.000;2024-01-30T00:38:57;1.88;;;1.33;;
83511;SDS011;73446;0.000;0.000;2024-01-30T00:41:41;1.75;;;1.15;;
83511;SDS011;73446;0.000;0.000;2024-01-30T00:44:25;1.55;;;1.30;;
83511;SDS011;73446;0.000;0.000;2024-01-30T00:47:09;1.88;;;1.42;;
83511;SDS011;73446;0.000;0.000;2024-01-30T00:49:54;2.22;;;1.48;;
83511;SDS011;73446;0.000;0.000;2024-01-30T00:52:38;2.45;;;2.25;;
83511;SDS011;73446;0.000;0.000;2024-01-30T00:55:22;2.28;;;1.98;;
83511;SDS011;73446;0.000;0.000;2024-01-30T00:58:06;2.75;;;1.60;;
83511;SDS011;73446;0.000;0.000;2024-01-30T01:00:51;2.17;;;1.98;;
83511;SDS011;73446;0.000;0.000;2024-01-30T01:03:35;1.58;;;1.25;;
83511;SDS011;73446;0.000;0.000;2024-01-30T01:06:19;1.92;;;0.60;;
83511;SDS011;73446;0.000;0.000;2024-01-30T01:09:03;1.92;;;1.45;;
83511;SDS011;73446;0.000;0.000;2024-01-30T01:11:47;1.52;;;1.40;;
83511;SDS011;73446;0.000;0.000;2024-01-30T01:14:31;1.90;;;1.65;;
83511;SDS011;73446;0.000;0.000;2024-01-30T01:17:15;1.45;;;1.10;;
83511;SDS011;73446;0.000;0.000;2024-01-30T01:19:59;1.80;;;1.52;;
83511;SDS011;73446;0.000;0.000;2024-01-30T01:22:43;1.77;;;1.42;;
83511;SDS011;73446;0.000;0.000;2024-01-30T01:25:27;1.77;;;1.27;;
83511;SDS011;73446;0.000;0.000;2024-01-30T01:28:12;1.98;;;1.35;;
83511;SDS011;73446;0.000;0.000;2024-01-30T01:30:56;2.95;;;1.83;;
83511;SDS011;73446;0.000;0.000;2024-01-30T01:33:42;1.42;;;0.90;;
83511;SDS011;73446;0.000;0.000;2024-01-30T01:36:26;1.48;;;0.95;;
83511;SDS011;73446;0.000;0.000;2024-01-30T01:39:10;1.90;;;1.42;;
83511;SDS011;73446;0.000;0.000;2024-01-30T01:41:54;1.23;;;1.00;;
83511;SDS011;73446;0.000;0.000;2024-01-30T01:44:39;1.30;;;0.95;;
83511;SDS011;73446;0.000;0.000;2024-01-30T01:47:22;1.65;;;1.55;;
83511;SDS011;73446;0.000;0.000;2024-01-30T01:50:07;1.45;;;1.35;;
83511;SDS011;73446;0.000;0.000;2024-01-30T01:52:51;1.05;;;0.88;;
83511;SDS011;73446;0.000;0.000;2024-01-30T01:55:36;1.08;;;0.98;;
83511;SDS011;73446;0.000;0.000;2024-01-30T01:58:20;1.33;;;1.08;;
83511;SDS011;73446;0.000;0.000;2024-01-30T02:01:06;1.10;;;0.63;;
83511;SDS011;73446;0.000;0.000;2024-01-30T02:03:51;1.40;;;1.13;;
83511;SDS011;73446;0.000;0.000;2024-01-30T02:06:35;1.27;;;1.08;;
83511;SDS011;73446;0.000;0.000;2024-01-30T02:09:20;1.17;;;0.88;;
83511;SDS011;73446;0.000;0.000;2024-01-30T02:12:04;0.93;;;0.70;;
83511;SDS011;73446;0.000;0.000;2024-01-30T02:14:48;1.55;;;1.05;;
83511;SDS011;73446;0.000;0.000;2024-01-30T02:17:33;1.02;;;0.85;;
83511;SDS011;73446;0.000;0.000;2024-01-30T02:20:17;1.02;;;0.90;;
83511;SDS011;73446;0.000;0.000;2024-01-30T02:23:01;0.80;;;0.70;;
83511;SDS011;73446;0.000;0.000;2024-01-30T02:25:46;1.02;;;0.93;;
83511;SDS011;73446;0.000;0.000;2024-01-30T02:28:30;0.98;;;0.88;;
83511;SDS011;73446;0.000;0.000;2024-01-30T02:31:14;1.38;;;1.10;;
83511;SDS011;73446;0.000;0.000;2024-01-30T02:33:58;0.80;;;0.80;;
83511;SDS011;73446;0.000;0.000;2024-01-30T02:36:42;1.42;;;1.20;;
83511;SDS011;73446;0.000;0.000;2024-01-30T02:39:26;1.13;;;1.02;;
83511;SDS011;73446;0.000;0.000;2024-01-30T02:42:10;1.10;;;1.10;;
83511;SDS011;73446;0.000;0.000;2024-01-30T02:44:53;0.70;;;0.60;;
83511;SDS011;73446;0.000;0.000;2024-01-30T02:47:38;0.98;;;0.98;;
83511;SDS011;73446;0.000;0.000;2024-01-30T02:50:23;0.80;;;0.57;;
83511;SDS011;73446;0.000;0.000;2024-01-30T02:53:07;1.55;;;1.00;;
83511;SDS011;73446;0.000;0.000;2024-01-30T02:55:51;0.90;;;0.73;;
83511;SDS011;73446;0.000;0.000;2024-01-30T02:58:36;1.25;;;1.23;;
83511;SDS011;73446;0.000;0.000;2024-01-30T03:01:20;0.70;;;0.55;;
83511;SDS011;73446;0.000;0.000;2024-01-30T03:04:04;1.23;;;1.13;;
83511;SDS011;73446;0.000;0.000;2024-01-30T03:06:48;1.48;;;1.40;;
83511;SDS011;73446;0.000;0.000;2024-01-30T03:09:32;1.02;;;0.70;;
83511;SDS011;73446;0.000;0.000;2024-01-30T03:12:15;1.35;;;1.35;;
83511;SDS011;73446;0.000;0.000;2024-01-30T03:15:00;0.68;;;0.60;;
83511;SDS011;73446;0.000;0.000;2024-01-30T03:17:44;0.65;;;0.63;;
83511;SDS011;73446;0.000;0.000;2024-01-30T03:20:28;0.73;;;0.57;;
83511;SDS011;73446;0.000;0.000;2024-01-30T03:23:11;1.15;;;1.13;;
83511;SDS011;73446;0.000;0.000;2024-01-30T03:25:56;1.25;;;1.15;;
83511;SDS011;73446;0.000;0.000;2024-01-30T03:28:40;1.08;;;1.08;;
83511;SDS011;73446;0.000;0.000;2024-01-30T03:31:24;0.90;;;0.77;;
83511;SDS011;73446;0.000;0.000;2024-01-30T03:34:08;0.80;;;0.52;;
83511;SDS011;73446;0.000;0.000;2024-01-30T03:36:52;1.05;;;0.93;;
83511;SDS011;73446;0.000;0.000;2024-01-30T03:39:36;0.65;;;0.47;;
83511;SDS011;73446;0.000;0.000;2024-01-30T03:42:20;0.80;;;0.60;;
83511;SDS011;73446;0.000;0.000;2024-01-30T03:45:04;1.00;;;0.75;;
83511;SDS011;73446;0.000;0.000;2024-01-30T03:47:48;1.23;;;1.05;;
83511;SDS011;73446;0.000;0.000;2024-01-30T03:50:33;0.93;;;0.93;;
83511;SDS011;73446;0.000;0.000;2024-01-30T03:53:17;0.82;;;0.73;;
83511;SDS011;73446;0.000;0.000;2024-01-30T03:56:01;0.73;;;0.60;;
83511;SDS011;73446;0.000;0.000;2024-01-30T03:58:45;1.02;;;0.88;;
83511;SDS011;73446;0.000;0.000;2024-01-30T04:01:29;0.98;;;0.93;;
83511;SDS011;73446;0.000;0.000;2024-01-30T04:04:13;0.73;;;0.73;;
83511;SDS011;73446;0.000;0.000;2024-01-30T04:06:57;1.02;;;0.93;;
83511;SDS011;73446;0.000;0.000;2024-01-30T04:09:40;1.13;;;0.68;;
83511;SDS011;73446;0.000;0.000;2024-01-30T04:12:25;1.55;;;1.42;;
83511;SDS011;73446;0.000;0.000;2024-01-30T04:15:09;1.50;;;1.40;;
83511;SDS011;73446;0.000;0.000;2024-01-30T04:17:53;0.75;;;0.65;;
83511;SDS011;73446;0.000;0.000;2024-01-30T04:20:37;1.05;;;1.05;;
83511;SDS011;73446;0.000;0.000;2024-01-30T04:23:21;1.58;;;1.48;;
83511;SDS011;73446;0.000;0.000;2024-01-30T04:26:05;0.50;;;0.20;;
83511;SDS011;73446;0.000;0.000;2024-01-30T04:28:49;1.75;;;1.65;;
83511;SDS011;73446;0.000;0.000;2024-01-30T04:31:35;1.30;;;1.25;;
83511;SDS011;73446;0.000;0.000;2024-01-30T04:34:20;0.73;;;0.73;;
83511;SDS011;73446;0.000;0.000;2024-01-30T04:37:04;0.95;;;0.88;;
83511;SDS011;73446;0.000;0.000;2024-01-30T04:39:47;1.20;;;1.10;;
83511;SDS011;73446;0.000;0.000;2024-01-30T04:42:31;0.80;;;0.80;;
83511;SDS011;73446;0.000;0.000;2024-01-30T04:45:15;0.70;;;0.65;;
83511;SDS011;73446;0.000;0.000;2024-01-30T04:47:59;1.15;;;1.08;;
83511;SDS011;73446;0.000;0.000;2024-01-30T04:50:43;0.75;;;0.65;;
83511;SDS011;73446;0.000;0.000;2024-01-30T04:53:27;0.88;;;0.70;;
83511;SDS011;73446;0.000;0.000;2024-01-30T04:56:11;1.45;;;1.08;;
83511;SDS011;73446;0.000;0.000;2024-01-30T04:58:55;0.80;;;0.77;;
83511;SDS011;73446;0.000;0.000;2024-01-30T05:01:39;0.95;;;0.50;;
83511;SDS011;73446;0.000;0.000;2024-01-30T05:04:23;0.98;;;0.73;;
83511;SDS011;73446;0.000;0.000;2024-01-30T05:07:06;0.85;;;0.60;;
83511;SDS011;73446;0.000;0.000;2024-01-30T05:09:51;1.73;;;1.63;;
83511;SDS011;73446;0.000;0.000;2024-01-30T05:12:35;0.32;;;0.30;;
83511;SDS011;73446;0.000;0.000;2024-01-30T05:15:19;0.88;;;0.80;;
83511;SDS011;73446;0.000;0.000;2024-01-30T05:18:03;0.77;;;0.65;;
83511;SDS011;73446;0.000;0.000;2024-01-30T05:20:47;1.02;;;0.95;;
83511;SDS011;73446;0.000;0.000;2024-01-30T05:23:31;0.60;;;0.50;;
83511;SDS011;73446;0.000;0.000;2024-01-30T05:26:15;0.68;;;0.50;;
83511;SDS011;73446;0.000;0.000;2024-01-30T05:28:59;0.52;;;0.45;;
83511;SDS011;73446;0.000;0.000;2024-01-30T05:31:43;0.60;;;0.60;;
83511;SDS011;73446;0.000;0.000;2024-01-30T05:34:27;0.98;;;0.98;;
83511;SDS011;73446;0.000;0.000;2024-01-30T05:37:11;1.05;;;1.05;;
83511;SDS011;73446;0.000;0.000;2024-01-30T05:40:00;1.17;;;1.08;;
83511;SDS011;73446;0.000;0.000;2024-01-30T05:42:44;1.17;;;0.73;;
83511;SDS011;73446;0.000;0.000;2024-01-30T05:45:28;0.95;;;0.77;;
83511;SDS011;73446;0.000;0.000;2024-01-30T05:48:12;0.70;;;0.68;;
83511;SDS011;73446;0.000;0.000;2024-01-30T05:50:57;0.90;;;0.90;;
83511;SDS011;73446;0.000;0.000;2024-01-30T05:53:41;1.13;;;0.93;;
83511;SDS011;73446;0.000;0.000;2024-01-30T05:56:25;0.68;;;0.10;;
83511;SDS011;73446;0.000;0.000;2024-01-30T05:59:08;0.88;;;0.88;;
83511;SDS011;73446;0.000;0.000;2024-01-30T06:01:52;1.48;;;0.88;;
83511;SDS011;73446;0.000;0.000;2024-01-30T06:04:36;1.38;;;1.17;;
83511;SDS011;73446;0.000;0.000;2024-01-30T06:07:20;2.30;;;1.25;;
83511;SDS011;73446;0.000;0.000;2024-01-30T06:10:05;2.28;;;1.60;;
83511;SDS011;73446;0.000;0.000;2024-01-30T06:12:50;2.78;;;1.45;;
83511;SDS011;73446;0.000;0.000;2024-01-30T06:15:34;4.03;;;1.65;;
83511;SDS011;73446;0.000;0.000;2024-01-30T06:18:18;2.50;;;1.95;;
83511;SDS011;73446;0.000;0.000;2024-01-30T06:21:02;1.80;;;1.33;;
83511;SDS011;73446;0.000;0.000;2024-01-30T06:23:47;2.22;;;1.38;;
83511;SDS011;73446;0.000;0.000;2024-01-30T06:26:31;2.50;;;0.98;;
83511;SDS011;73446;0.000;0.000;2024-01-30T06:29:16;2.60;;;1.63;;
83511;SDS011;73446;0.000;0.000;2024-01-30T06:32:00;3.97;;;1.55;;
83511;SDS011;73446;0.000;0.000;2024-01-30T06:34:44;2.05;;;1.85;;
83511;SDS011;73446;0.000;0.000;2024-01-30T06:37:28;3.45;;;2.40;;
83511;SDS011;73446;0.000;0.000;2024-01-30T06:40:12;2.00;;;1.42;;
83511;SDS011;73446;0.000;0.000;2024-01-30T06:42:56;3.40;;;0.82;;
83511;SDS011;73446;0.000;0.000;2024-01-30T06:45:40;1.45;;;0.85;;
83511;SDS011;73446;0.000;0.000;2024-01-30T06:48:23;1.80;;;1.70;;
83511;SDS011;73446;0.000;0.000;2024-01-30T06:51:08;2.25;;;2.05;;
83511;SDS011;73446;0.000;0.000;2024-01-30T06:53:51;2.10;;;1.90;;
83511;SDS011;73446;0.000;0.000;2024-01-30T06:56:35;1.70;;;0.90;;
83511;SDS011;73446;0.000;0.000;2024-01-30T06:59:19;1.38;;;1.10;;
83511;SDS011;73446;0.000;0.000;2024-01-30T07:02:03;1.90;;;1.58;;
83511;SDS011;73446;0.000;0.000;2024-01-30T07:04:48;1.95;;;1.27;;
83511;SDS011;73446;0.000;0.000;2024-01-30T07:07:33;1.30;;;0.93;;
83511;SDS011;73446;0.000;0.000;2024-01-30T07:10:16;1.40;;;0.60;;
83511;SDS011;73446;0.000;0.000;2024-01-30T07:13:01;1.23;;;0.30;;
83511;SDS011;73446;0.000;0.000;2024-01-30T07:15:45;1.88;;;0.93;;
83511;SDS011;73446;0.000;0.000;2024-01-30T07:18:30;1.20;;;0.95;;
83511;SDS011;73446;0.000;0.000;2024-01-30T07:21:13;1.75;;;1.65;;
83511;SDS011;73446;0.000;0.000;2024-01-30T07:23:58;1.90;;;1.05;;
83511;SDS011;73446;0.000;0.000;2024-01-30T07:26:42;1.98;;;0.47;;
83511;SDS011;73446;0.000;0.000;2024-01-30T07:29:26;2.30;;;1.17;;
83511;SDS011;73446;0.000;0.000;2024-01-30T07:32:09;1.23;;;0.85;;
83511;SDS011;73446;0.000;0.000;2024-01-30T07:34:54;2.13;;;1.45;;
83511;SDS011;73446;0.000;0.000;2024-01-30T07:37:37;2.20;;;1.25;;
83511;SDS011;73446;0.000;0.000;2024-01-30T07:40:21;1.70;;;0.98;;
83511;SDS011;73446;0.000;0.000;2024-01-30T07:43:05;2.17;;;1.75;;
83511;SDS011;73446;0.000;0.000;2024-01-30T07:45:49;1.63;;;0.77;;
83511;SDS011;73446;0.000;0.000;2024-01-30T07:48:33;1.80;;;0.55;;
83511;SDS011;73446;0.000;0.000;2024-01-30T07:51:18;2.10;;;1.63;;
83511;SDS011;73446;0.000;0.000;2024-01-30T07:54:01;2.83;;;0.90;;
83511;SDS011;73446;0.000;0.000;2024-01-30T07:56:45;1.83;;;1.15;;
83511;SDS011;73446;0.000;0.000;2024-01-30T07:59:29;1.52;;;0.82;;
83511;SDS011;73446;0.000;0.000;2024-01-30T08:02:13;1.35;;;0.90;;
83511;SDS011;73446;0.000;0.000;2024-01-30T08:04:57;1.52;;;1.00;;
83511;SDS011;73446;0.000;0.000;2024-01-30T08:07:41;2.65;;;1.98;;
83511;SDS011;73446;0.000;0.000;2024-01-30T08:10:26;4.00;;;2.88;;
83511;SDS011;73446;0.000;0.000;2024-01-30T08:13:10;3.17;;;1.08;;
83511;SDS011;73446;0.000;0.000;2024-01-30T08:15:53;3.38;;;1.98;;
83511;SDS011;73446;0.000;0.000;2024-01-30T08:18:38;4.07;;;1.92;;
83511;SDS011;73446;0.000;0.000;2024-01-30T08:21:22;2.72;;;2.15;;
83511;SDS011;73446;0.000;0.000;2024-01-30T08:24:06;4.05;;;2.45;;
83511;SDS011;73446;0.000;0.000;2024-01-30T08:26:50;3.63;;;2.00;;
83511;SDS011;73446;0.000;0.000;2024-01-30T08:29:35;3.40;;;1.42;;
83511;SDS011;73446;0.000;0.000;2024-01-30T08:32:19;2.45;;;1.52;;
83511;SDS011;73446;0.000;0.000;2024-01-30T08:35:03;3.63;;;1.98;;
83511;SDS011;73446;0.000;0.000;2024-01-30T08:37:47;8.05;;;3.35;;
83511;SDS011;73446;0.000;0.000;2024-01-30T08:40:31;4.15;;;1.90;;
83511;SDS011;73446;0.000;0.000;2024-01-30T08:43:15;4.25;;;2.33;;
83511;SDS011;73446;0.000;0.000;2024-01-30T08:45:59;3.60;;;2.08;;
83511;SDS011;73446;0.000;0.000;2024-01-30T08:48:44;3.40;;;2.03;;
83511;SDS011;73446;0.000;0.000;2024-01-30T08:51:28;3.75;;;1.80;;
83511;SDS011;73446;0.000;0.000;2024-01-30T08:54:12;4.30;;;2.15;;
83511;SDS011;73446;0.000;0.000;2024-01-30T08:56:56;3.78;;;2.25;;
83511;SDS011;73446;0.000;0.000;2024-01-30T08:59:42;3.13;;;1.67;;
83511;SDS011;73446;0.000;0.000;2024-01-30T09:02:27;2.42;;;1.52;;
83511;SDS011;73446;0.000;0.000;2024-01-30T09:05:12;3.42;;;1.80;;
83511;SDS011;73446;0.000;0.000;2024-01-30T09:07:56;5.20;;;2.20;;
83511;SDS011;73446;0.000;0.000;2024-01-30T09:10:40;3.85;;;1.52;;
83511;SDS011;73446;0.000;0.000;2024-01-30T09:13:24;4.05;;;2.58;;
83511;SDS011;73446;0.000;0.000;2024-01-30T09:16:08;3.35;;;2.05;;
83511;SDS011;73446;0.000;0.000;2024-01-30T09:18:52;3.17;;;2.20;;
83511;SDS011;73446;0.000;0.000;2024-01-30T09:21:36;4.20;;;1.20;;
83511;SDS011;73446;0.000;0.000;2024-01-30T09:24:20;3.00;;;1.63;;
83511;SDS011;73446;0.000;0.000;2024-01-30T09:27:04;4.55;;;2.80;;
83511;SDS011;73446;0.000;0.000;2024-01-30T09:29:49;2.35;;;1.60;;
83511;SDS011;73446;0.000;0.000;2024-01-30T09:32:33;3.10;;;1.58;;
83511;SDS011;73446;0.000;0.000;2024-01-30T09:35:17;2.60;;;1.52;;
83511;SDS011;73446;0.000;0.000;2024-01-30T09:38:01;3.40;;;0.85;;
83511;SDS011;73446;0.000;0.000;2024-01-30T09:40:47;2.08;;;1.05;;
83511;SDS011;73446;0.000;0.000;2024-01-30T09:43:37;2.50;;;2.08;;
83511;SDS011;73446;0.000;0.000;2024-01-30T09:46:21;2.58;;;1.23;;
83511;SDS011;73446;0.000;0.000;2024-01-30T09:49:11;4.72;;;1.95;;
83511;SDS011;73446;0.000;0.000;2024-01-30T09:51:56;1.77;;;1.02;;
83511;SDS011;73446;0.000;0.000;2024-01-30T09:54:41;3.00;;;1.85;;
83511;SDS011;73446;0.000;0.000;2024-01-30T09:57:25;2.20;;;1.02;;
83511;SDS011;73446;0.000;0.000;2024-01-30T10:00:10;1.73;;;0.52;;
83511;SDS011;73446;0.000;0.000;2024-01-30T10:02:55;3.28;;;1.67;;
83511;SDS011;73446;0.000;0.000;2024-01-30T10:05:39;2.28;;;1.08;;
83511;SDS011;73446;0.000;0.000;2024-01-30T10:08:25;1.95;;;0.98;;
83511;SDS011;73446;0.000;0.000;2024-01-30T10:11:09;2.75;;;1.65;;
83511;SDS011;73446;0.000;0.000;2024-01-30T10:13:54;3.40;;;2.00;;
83511;SDS011;73446;0.000;0.000;2024-01-30T10:16:38;3.22;;;1.23;;
83511;SDS011;73446;0.000;0.000;2024-01-30T10:19:22;4.13;;;2.70;;
83511;SDS011;73446;0.000;0.000;2024-01-30T10:22:06;4.22;;;1.73;;
83511;SDS011;73446;0.000;0.000;2024-01-30T10:24:50;3.33;;;1.63;;
83511;SDS011;73446;0.000;0.000;2024-01-30T10:27:35;3.47;;;2.05;;
83511;SDS011;73446;0.000;0.000;2024-01-30T10:30:19;3.78;;;1.90;;
83511;SDS011;73446;0.000;0.000;2024-01-30T10:33:03;3.45;;;1.58;;
83511;SDS011;73446;0.000;0.000;2024-01-30T10:35:47;2.15;;;1.25;;
83511;SDS011;73446;0.000;0.000;2024-01-30T10:38:33;2.28;;;1.88;;
83511;SDS011;73446;0.000;0.000;2024-01-30T10:41:19;2.80;;;2.05;;
83511;SDS011;73446;0.000;0.000;2024-01-30T10:44:10;2.42;;;1.38;;
83511;SDS011;73446;0.000;0.000;2024-01-30T10:46:56;3.03;;;2.35;;
83511;SDS011;73446;0.000;0.000;2024-01-30T10:49:47;2.42;;;1.77;;
83511;SDS011;73446;0.000;0.000;2024-01-30T10:52:31;2.60;;;1.88;;
83511;SDS011;73446;0.000;0.000;2024-01-30T10:55:16;2.25;;;1.45;;
83511;SDS011;73446;0.000;0.000;2024-01-30T10:58:02;2.35;;;1.33;;
83511;SDS011;73446;0.000;0.000;2024-01-30T11:00:46;3.20;;;2.40;;
83511;SDS011;73446;0.000;0.000;2024-01-30T11:03:30;3.60;;;1.90;;
83511;SDS011;73446;0.000;0.000;2024-01-30T11:06:16;2.90;;;1.58;;
83511;SDS011;73446;0.000;0.000;2024-01-30T11:11:57;2.28;;;2.08;;
83511;SDS011;73446;0.000;0.000;2024-01-30T11:14:44;2.13;;;1.65;;
83511;SDS011;73446;0.000;0.000;2024-01-30T11:17:29;1.73;;;0.30;;
83511;SDS011;73446;0.000;0.000;2024-01-30T11:20:31;3.30;;;1.70;;
83511;SDS011;73446;0.000;0.000;2024-01-30T11:23:16;2.33;;;2.05;;
83511;SDS011;73446;0.000;0.000;2024-01-30T11:26:00;3.28;;;1.45;;
83511;SDS011;73446;0.000;0.000;2024-01-30T11:28:44;2.20;;;1.02;;
83511;SDS011;73446;0.000;0.000;2024-01-30T11:31:36;1.83;;;1.65;;
83511;SDS011;73446;0.000;0.000;2024-01-30T11:34:21;2.00;;;1.60;;
83511;SDS011;73446;0.000;0.000;2024-01-30T11:37:09;2.03;;;1.17;;
83511;SDS011;73446;0.000;0.000;2024-01-30T11:39:55;2.33;;;1.83;;
83511;SDS011;73446;0.000;0.000;2024-01-30T11:42:39;2.63;;;1.05;;
83511;SDS011;73446;0.000;0.000;2024-01-30T11:45:24;2.45;;;1.00;;
83511;SDS011;73446;0.000;0.000;2024-01-30T11:48:09;1.55;;;1.27;;
83511;SDS011;73446;0.000;0.000;2024-01-30T11:50:55;1.75;;;1.15;;
83511;SDS011;73446;0.000;0.000;2024-01-30T11:53:39;1.27;;;0.90;;
83511;SDS011;73446;0.000;0.000;2024-01-30T11:56:25;1.35;;;1.10;;
83511;SDS011;73446;0.000;0.000;2024-01-30T11:59:10;1.55;;;1.45;;
83511;SDS011;73446;0.000;0.000;2024-01-30T12:01:54;1.85;;;1.40;;
83511;SDS011;73446;0.000;0.000;2024-01-30T12:04:38;1.48;;;1.20;;
83511;SDS011;73446;0.000;0.000;2024-01-30T12:07:22;1.25;;;0.45;;
83511;SDS011;73446;0.000;0.000;2024-01-30T12:10:08;2.10;;;1.13;;
83511;SDS011;73446;0.000;0.000;2024-01-30T12:12:53;2.20;;;1.30;;
83511;SDS011;73446;0.000;0.000;2024-01-30T12:15:37;16.63;;;2.15;;
83511;SDS011;73446;0.000;0.000;2024-01-30T12:18:21;10.43;;;2.70;;
83511;SDS011;73446;0.000;0.000;2024-01-30T12:21:05;8.88;;;2.30;;
83511;SDS011;73446;0.000;0.000;2024-01-30T12:23:49;7.53;;;1.63;;
83511;SDS011;73446;0.000;0.000;2024-01-30T12:26:33;6.25;;;1.63;;
83511;SDS011;73446;0.000;0.000;2024-01-30T12:29:17;5.95;;;1.48;;
83511;SDS011;73446;0.000;0.000;2024-01-30T12:32:01;8.13;;;1.95;;
83511;SDS011;73446;0.000;0.000;2024-01-30T12:34:44;5.13;;;1.60;;
83511;SDS011;73446;0.000;0.000;2024-01-30T12:37:29;7.13;;;1.15;;
83511;SDS011;73446;0.000;0.000;2024-01-30T12:40:14;6.57;;;2.08;;
83511;SDS011;73446;0.000;0.000;2024-01-30T12:42:58;6.78;;;1.30;;
83511;SDS011;73446;0.000;0.000;2024-01-30T12:45:42;6.38;;;1.20;;
83511;SDS011;73446;0.000;0.000;2024-01-30T12:48:26;3.78;;;2.03;;
83511;SDS011;73446;0.000;0.000;2024-01-30T12:51:12;2.90;;;0.40;;
83511;SDS011;73446;0.000;0.000;2024-01-30T12:53:56;4.05;;;1.25;;
83511;SDS011;73446;0.000;0.000;2024-01-30T12:56:41;6.18;;;1.63;;
83511;SDS011;73446;0.000;0.000;2024-01-30T12:59:24;6.68;;;1.95;;
83511;SDS011;73446;0.000;0.000;2024-01-30T13:02:09;6.43;;;2.17;;
83511;SDS011;73446;0.000;0.000;2024-01-30T13:04:54;4.63;;;1.80;;
83511;SDS011;73446;0.000;0.000;2024-01-30T13:07:38;5.13;;;2.38;;
83511;SDS011;73446;0.000;0.000;2024-01-30T13:10:22;5.13;;;1.58;;
83511;SDS011;73446;0.000;0.000;2024-01-30T13:13:07;5.07;;;1.77;;
83511;SDS011;73446;0.000;0.000;2024-01-30T13:15:53;5.95;;;1.40;;
83511;SDS011;73446;0.000;0.000;2024-01-30T13:18:37;6.50;;;1.17;;
83511;SDS011;73446;0.000;0.000;2024-01-30T13:21:21;4.32;;;1.30;;
83511;SDS011;73446;0.000;0.000;2024-01-30T13:24:05;6.82;;;1.42;;
83511;SDS011;73446;0.000;0.000;2024-01-30T13:26:49;3.28;;;1.27;;
83511;SDS011;73446;0.000;0.000;2024-01-30T13:29:34;4.10;;;0.93;;
83511;SDS011;73446;0.000;0.000;2024-01-30T13:32:18;5.38;;;1.48;;
83511;SDS011;73446;0.000;0.000;2024-01-30T13:35:02;5.57;;;1.70;;
83511;SDS011;73446;0.000;0.000;2024-01-30T13:37:46;2.33;;;1.20;;
83511;SDS011;73446;0.000;0.000;2024-01-30T13:40:32;7.13;;;1.25;;
83511;SDS011;73446;0.000;0.000;2024-01-30T13:43:16;5.32;;;1.65;;
83511;SDS011;73446;0.000;0.000;2024-01-30T13:46:01;4.82;;;1.48;;
83511;SDS011;73446;0.000;0.000;2024-01-30T13:48:45;5.18;;;0.75;;
83511;SDS011;73446;0.000;0.000;2024-01-30T13:51:29;3.60;;;2.83;;
83511;SDS011;73446;0.000;0.000;2024-01-30T13:54:13;2.50;;;0.95;;
83511;SDS011;73446;0.000;0.000;2024-01-30T13:56:58;4.38;;;1.38;;
83511;SDS011;73446;0.000;0.000;2024-01-30T13:59:43;5.43;;;1.25;;
83511;SDS011;73446;0.000;0.000;2024-01-30T14:02:27;3.50;;;1.15;;
83511;SDS011;73446;0.000;0.000;2024-01-30T14:05:10;9.23;;;1.65;;
83511;SDS011;73446;0.000;0.000;2024-01-30T14:07:54;3.88;;;1.63;;
83511;SDS011;73446;0.000;0.000;2024-01-30T14:10:40;6.93;;;1.50;;
83511;SDS011;73446;0.000;0.000;2024-01-30T14:13:23;3.40;;;0.43;;
83511;SDS011;73446;0.000;0.000;2024-01-30T14:16:08;8.77;;;1.58;;
83511;SDS011;73446;0.000;0.000;2024-01-30T14:18:53;14.73;;;2.05;;
83511;SDS011;73446;0.000;0.000;2024-01-30T14:21:37;4.65;;;1.05;;
83511;SDS011;73446;0.000;0.000;2024-01-30T14:24:21;3.85;;;2.75;;
83511;SDS011;73446;0.000;0.000;2024-01-30T14:27:05;9.02;;;1.00;;
83511;SDS011;73446;0.000;0.000;2024-01-30T14:29:51;5.68;;;1.67;;
83511;SDS011;73446;0.000;0.000;2024-01-30T14:32:35;4.22;;;1.00;;
83511;SDS011;73446;0.000;0.000;2024-01-30T14:35:19;6.07;;;1.15;;
83511;SDS011;73446;0.000;0.000;2024-01-30T14:38:04;3.03;;;0.65;;
83511;SDS011;73446;0.000;0.000;2024-01-30T14:40:51;5.50;;;0.98;;
83511;SDS011;73446;0.000;0.000;2024-01-30T14:43:35;4.65;;;1.08;;
83511;SDS011;73446;0.000;0.000;2024-01-30T14:46:21;6.70;;;0.98;;
83511;SDS011;73446;0.000;0.000;2024-01-30T14:49:06;4.35;;;1.15;;
83511;SDS011;73446;0.000;0.000;2024-01-30T14:51:51;4.18;;;1.00;;
83511;SDS011;73446;0.000;0.000;2024-01-30T14:54:35;5.10;;;1.45;;
83511;SDS011;73446;0.000;0.000;2024-01-30T14:57:19;4.20;;;0.85;;
83511;SDS011;73446;0.000;0.000;2024-01-30T15:00:04;6.10;;;1.85;;
83511;SDS011;73446;0.000;0.000;2024-01-30T15:02:49;5.28;;;2.85;;
83511;SDS011;73446;0.000;0.000;2024-01-30T15:05:33;7.50;;;1.17;;
83511;SDS011;73446;0.000;0.000;2024-01-30T15:08:17;5.32;;;1.35;;
83511;SDS011;73446;0.000;0.000;2024-01-30T15:11:02;4.03;;;0.98;;
83511;SDS011;73446;0.000;0.000;2024-01-30T15:13:48;3.83;;;1.05;;
83511;SDS011;73446;0.000;0.000;2024-01-30T15:16:31;2.67;;;0.85;;
83511;SDS011;73446;0.000;0.000;2024-01-30T15:19:16;4.00;;;1.45;;
83511;SDS011;73446;0.000;0.000;2024-01-30T15:22:00;3.28;;;1.63;;
83511;SDS011;73446;0.000;0.000;2024-01-30T15:24:44;1.63;;;1.15;;
83511;SDS011;73446;0.000;0.000;2024-01-30T15:27:28;2.25;;;1.30;;
83511;SDS011;73446;0.000;0.000;2024-01-30T15:30:12;2.83;;;1.08;;
83511;SDS011;73446;0.000;0.000;2024-01-30T15:32:56;2.95;;;1.08;;
83511;SDS011;73446;0.000;0.000;2024-01-30T15:35:40;2.90;;;0.65;;
83511;SDS011;73446;0.000;0.000;2024-01-30T15:38:24;3.25;;;1.92;;
83511;SDS011;73446;0.000;0.000;2024-01-30T15:41:09;4.32;;;2.40;;
83511;SDS011;73446;0.000;0.000;2024-01-30T15:43:54;4.45;;;2.33;;
83511;SDS011;73446;0.000;0.000;2024-01-30T15:46:37;2.55;;;2.20;;
83511;SDS011;73446;0.000;0.000;2024-01-30T15:49:22;2.85;;;2.55;;
83511;SDS011;73446;0.000;0.000;2024-01-30T15:52:06;2.88;;;1.40;;
83511;SDS011;73446;0.000;0.000;2024-01-30T15:54:50;2.90;;;1.85;;
83511;SDS011;73446;0.000;0.000;2024-01-30T15:57:34;3.22;;;1.30;;
83511;SDS011;73446;0.000;0.000;2024-01-30T16:00:18;2.80;;;1.73;;
83511;SDS011;73446;0.000;0.000;2024-01-30T16:03:02;3.60;;;1.55;;
83511;SDS011;73446;0.000;0.000;2024-01-30T16:05:47;2.90;;;1.48;;
83511;SDS011;73446;0.000;0.000;2024-01-30T16:08:31;4.28;;;2.33;;
83511;SDS011;73446;0.000;0.000;2024-01-30T16:11:16;3.58;;;1.75;;
83511;SDS011;73446;0.000;0.000;2024-01-30T16:14:00;2.85;;;1.80;;
83511;SDS011;73446;0.000;0.000;2024-01-30T16:16:44;4.35;;;3.35;;
83511;SDS011;73446;0.000;0.000;2024-01-30T16:19:28;2.65;;;2.22;;
83511;SDS011;73446;0.000;0.000;2024-01-30T16:22:13;4.03;;;2.25;;
83511;SDS011;73446;0.000;0.000;2024-01-30T16:24:57;3.75;;;1.75;;
83511;SDS011;73446;0.000;0.000;2024-01-30T16:27:41;3.10;;;1.50;;
83511;SDS011;73446;0.000;0.000;2024-01-30T16:30:25;8.38;;;4.28;;
83511;SDS011;73446;0.000;0.000;2024-01-30T16:33:08;5.53;;;2.58;;
83511;SDS011;73446;0.000;0.000;2024-01-30T16:35:52;6.35;;;2.90;;
83511;SDS011;73446;0.000;0.000;2024-01-30T16:38:37;5.45;;;2.47;;
83511;SDS011;73446;0.000;0.000;2024-01-30T16:41:21;6.50;;;2.05;;
83511;SDS011;73446;0.000;0.000;2024-01-30T16:44:04;5.50;;;2.10;;
83511;SDS011;73446;0.000;0.000;2024-01-30T16:46:48;9.65;;;2.80;;